createdAt,value
2017-09-03T00:00:56.600Z,18.9
2017-09-03T00:02:15.266Z,18.9
2017-09-03T00:03:33.927Z,18.9
2017-09-03T00:04:52.600Z,18.9
2017-09-03T00:06:11.324Z,18.9
2017-09-03T00:07:29.992Z,18.9
2017-09-03T00:08:48.680Z,18.9
2017-09-03T00:10:07.360Z,18.9
2017-09-03T00:11:26.063Z,18.8
2017-09-03T00:12:44.772Z,18.9
2017-09-03T00:14:03.487Z,18.8
2017-09-03T00:15:22.175Z,18.8
2017-09-03T00:16:40.842Z,18.8
2017-09-03T00:17:59.528Z,18.8
2017-09-03T00:19:18.190Z,18.8
2017-09-03T00:20:36.860Z,18.8
2017-09-03T00:21:55.522Z,18.8
2017-09-03T00:23:14.184Z,18.8
2017-09-03T00:24:32.901Z,18.8
2017-09-03T00:25:51.585Z,18.8
2017-09-03T00:27:10.248Z,18.8
2017-09-03T00:28:28.956Z,18.8
2017-09-03T00:29:47.621Z,18.8
2017-09-03T00:31:06.325Z,18.8
2017-09-03T00:32:25.002Z,18.8
2017-09-03T00:33:43.663Z,18.8
2017-09-03T00:35:02.333Z,18.8
2017-09-03T00:36:21.073Z,18.8
2017-09-03T00:37:39.788Z,18.8
2017-09-03T00:38:58.512Z,18.8
2017-09-03T00:40:17.179Z,18.8
2017-09-03T00:41:35.848Z,18.8
2017-09-03T00:42:54.567Z,18.8
2017-09-03T00:44:13.231Z,18.8
2017-09-03T00:45:31.894Z,18.8
2017-09-03T00:46:50.572Z,18.8
2017-09-03T00:48:09.239Z,18.8
2017-09-03T00:49:27.903Z,18.8
2017-09-03T00:50:46.618Z,18.8
2017-09-03T00:52:05.286Z,18.8
2017-09-03T00:53:23.956Z,18.7
2017-09-03T00:54:42.619Z,18.7
2017-09-03T00:56:01.299Z,18.7
2017-09-03T00:57:19.976Z,18.7
2017-09-03T00:58:38.646Z,18.7
2017-09-03T00:59:57.313Z,18.7
2017-09-03T01:01:16.051Z,18.7
2017-09-03T01:02:34.756Z,18.7
2017-09-03T01:03:53.466Z,18.7
2017-09-03T01:05:12.126Z,18.7
2017-09-03T01:06:30.788Z,18.7
2017-09-03T01:07:49.537Z,18.7
2017-09-03T01:09:08.202Z,18.7
2017-09-03T01:10:26.882Z,18.7
2017-09-03T01:11:45.549Z,18.7
2017-09-03T01:13:04.213Z,18.7
2017-09-03T01:14:22.927Z,18.7
2017-09-03T01:15:41.587Z,18.7
2017-09-03T01:17:00.303Z,18.7
2017-09-03T01:18:19.003Z,18.7
2017-09-03T01:19:37.701Z,18.7
2017-09-03T01:20:56.375Z,18.7
2017-09-03T01:22:15.037Z,18.7
2017-09-03T01:23:33.728Z,18.7
2017-09-03T01:24:52.392Z,18.7
2017-09-03T01:26:11.082Z,18.7
2017-09-03T01:27:29.744Z,18.7
2017-09-03T01:28:48.434Z,18.7
2017-09-03T01:30:07.147Z,18.7
2017-09-03T01:31:25.819Z,18.7
2017-09-03T01:32:44.529Z,18.7
2017-09-03T01:34:03.203Z,18.7
2017-09-03T01:35:21.887Z,18.7
2017-09-03T01:36:40.556Z,18.7
2017-09-03T01:37:59.241Z,18.7
2017-09-03T01:39:17.970Z,18.7
2017-09-03T01:40:36.641Z,18.7
2017-09-03T01:41:55.311Z,18.7
2017-09-03T01:43:13.979Z,18.7
2017-09-03T01:44:32.665Z,18.6
2017-09-03T01:45:51.330Z,18.6
2017-09-03T01:47:10.040Z,18.6
2017-09-03T01:48:28.706Z,18.6
2017-09-03T01:49:47.418Z,18.6
2017-09-03T01:51:06.094Z,18.6
2017-09-03T01:52:24.806Z,18.6
2017-09-03T01:53:43.468Z,18.6
2017-09-03T01:55:02.145Z,18.6
2017-09-03T01:56:20.889Z,18.6
2017-09-03T01:57:39.610Z,18.6
2017-09-03T01:58:58.331Z,18.6
2017-09-03T02:00:17.006Z,18.6
2017-09-03T02:01:35.678Z,18.6
2017-09-03T02:02:54.343Z,18.6
2017-09-03T02:04:13.014Z,18.6
2017-09-03T02:05:31.680Z,18.6
2017-09-03T02:06:50.349Z,18.6
2017-09-03T02:08:09.012Z,18.6
2017-09-03T02:09:27.709Z,18.6
2017-09-03T02:10:46.390Z,18.6
2017-09-03T02:12:05.061Z,18.6
2017-09-03T02:13:23.751Z,18.6
2017-09-03T02:14:42.412Z,18.6
2017-09-03T02:16:01.108Z,18.6
2017-09-03T02:17:19.779Z,18.6
2017-09-03T02:18:38.443Z,18.6
2017-09-03T02:19:57.145Z,18.6
2017-09-03T02:21:15.890Z,18.6
2017-09-03T02:22:34.609Z,18.6
2017-09-03T02:23:53.280Z,18.6
2017-09-03T02:25:11.943Z,18.6
2017-09-03T02:26:30.659Z,18.6
2017-09-03T02:27:49.325Z,18.6
2017-09-03T02:29:08.033Z,18.6
2017-09-03T02:30:26.706Z,18.6
2017-09-03T02:31:45.419Z,18.6
2017-09-03T02:33:04.156Z,18.6
2017-09-03T02:34:22.814Z,18.6
2017-09-03T02:35:41.473Z,18.6
2017-09-03T02:37:00.165Z,18.6
2017-09-03T02:38:18.839Z,18.6
2017-09-03T02:39:37.495Z,18.6
2017-09-03T02:40:56.215Z,18.5
2017-09-03T02:42:14.910Z,18.5
2017-09-03T02:43:33.629Z,18.6
2017-09-03T02:44:52.296Z,18.5
2017-09-03T02:46:10.987Z,18.6
2017-09-03T02:47:29.662Z,18.5
2017-09-03T02:48:48.330Z,18.5
2017-09-03T02:50:07.045Z,18.5
2017-09-03T02:51:25.740Z,18.5
2017-09-03T02:52:44.428Z,18.5
2017-09-03T02:54:03.089Z,18.5
2017-09-03T02:55:21.746Z,18.5
2017-09-03T02:56:40.425Z,18.5
2017-09-03T02:57:59.132Z,18.5
2017-09-03T02:59:17.837Z,18.5
2017-09-03T03:00:36.549Z,18.5
2017-09-03T03:01:55.216Z,18.5
2017-09-03T03:03:13.948Z,18.5
2017-09-03T03:04:32.612Z,18.5
2017-09-03T03:05:51.270Z,18.5
2017-09-03T03:07:09.946Z,18.5
2017-09-03T03:08:28.619Z,18.5
2017-09-03T03:09:47.284Z,18.5
2017-09-03T03:11:05.986Z,18.5
2017-09-03T03:12:24.663Z,18.5
2017-09-03T03:13:43.346Z,18.5
2017-09-03T03:15:02.016Z,18.5
2017-09-03T03:16:20.745Z,18.5
2017-09-03T03:17:39.406Z,18.5
2017-09-03T03:18:58.117Z,18.5
2017-09-03T03:20:16.835Z,18.5
2017-09-03T03:21:35.524Z,18.5
2017-09-03T03:22:54.206Z,18.5
2017-09-03T03:24:12.905Z,18.5
2017-09-03T03:25:31.571Z,18.5
2017-09-03T03:26:50.293Z,18.5
2017-09-03T03:28:08.973Z,18.5
2017-09-03T03:29:27.646Z,18.5
2017-09-03T03:30:46.356Z,18.5
2017-09-03T03:32:05.082Z,18.5
2017-09-03T03:33:23.744Z,18.5
2017-09-03T03:34:42.485Z,18.5
2017-09-03T03:36:01.200Z,18.5
2017-09-03T03:37:19.920Z,18.5
2017-09-03T03:38:38.588Z,18.5
2017-09-03T03:39:57.283Z,18.5
2017-09-03T03:41:15.943Z,18.5
2017-09-03T03:42:34.614Z,18.5
2017-09-03T03:43:53.276Z,18.5
2017-09-03T03:45:11.958Z,18.5
2017-09-03T03:46:30.650Z,18.5
2017-09-03T03:47:49.376Z,18.5
2017-09-03T03:49:08.033Z,18.5
2017-09-03T03:50:26.718Z,18.5
2017-09-03T03:51:45.426Z,18.5
2017-09-03T03:53:04.089Z,18.5
2017-09-03T03:54:22.782Z,18.5
2017-09-03T03:55:41.485Z,18.5
2017-09-03T03:57:00.160Z,18.5
2017-09-03T03:58:18.844Z,18.5
2017-09-03T03:59:37.508Z,18.5
2017-09-03T04:00:56.194Z,18.5
2017-09-03T04:02:14.908Z,18.5
2017-09-03T04:03:33.581Z,18.5
2017-09-03T04:04:52.277Z,18.5
2017-09-03T04:06:10.944Z,18.4
2017-09-03T04:07:29.621Z,18.5
2017-09-03T04:08:48.316Z,18.5
2017-09-03T04:10:06.974Z,18.4
2017-09-03T04:11:25.703Z,18.4
2017-09-03T04:12:44.369Z,18.4
2017-09-03T04:14:03.034Z,18.4
2017-09-03T04:15:21.717Z,18.4
2017-09-03T04:16:40.468Z,18.4
2017-09-03T04:17:59.187Z,18.4
2017-09-03T04:19:17.852Z,18.4
2017-09-03T04:20:36.513Z,18.4
2017-09-03T04:21:55.213Z,18.4
2017-09-03T04:23:13.882Z,18.4
2017-09-03T04:24:32.578Z,18.4
2017-09-03T04:25:51.275Z,18.4
2017-09-03T04:27:09.950Z,18.4
2017-09-03T04:28:28.686Z,18.4
2017-09-03T04:29:47.363Z,18.4
2017-09-03T04:31:06.033Z,18.4
2017-09-03T04:32:24.739Z,18.4
2017-09-03T04:33:43.426Z,18.4
2017-09-03T04:35:02.095Z,18.4
2017-09-03T04:36:20.764Z,18.4
2017-09-03T04:37:39.432Z,18.4
2017-09-03T04:38:58.088Z,18.4
2017-09-03T04:40:16.773Z,18.4
2017-09-03T04:41:35.439Z,18.4
2017-09-03T04:42:54.127Z,18.4
2017-09-03T04:44:12.801Z,18.4
2017-09-03T04:45:31.508Z,18.4
2017-09-03T04:46:50.205Z,18.4
2017-09-03T04:48:08.881Z,18.4
2017-09-03T04:49:27.596Z,18.4
2017-09-03T04:50:46.268Z,18.4
2017-09-03T04:52:04.932Z,18.4
2017-09-03T04:53:23.634Z,18.4
2017-09-03T04:54:42.312Z,18.4
2017-09-03T04:56:00.980Z,18.4
2017-09-03T04:57:19.652Z,18.4
2017-09-03T04:58:38.359Z,18.4
2017-09-03T04:59:57.040Z,18.4
2017-09-03T05:01:15.709Z,18.4
2017-09-03T05:02:34.418Z,18.4
2017-09-03T05:03:53.106Z,18.4
2017-09-03T05:05:11.769Z,18.4
2017-09-03T05:06:30.486Z,18.4
2017-09-03T05:07:49.155Z,18.4
2017-09-03T05:09:07.841Z,18.4
2017-09-03T05:10:26.510Z,18.4
2017-09-03T05:11:45.205Z,18.4
2017-09-03T05:13:03.873Z,18.4
2017-09-03T05:14:22.560Z,18.4
2017-09-03T05:15:41.223Z,18.4
2017-09-03T05:16:59.899Z,18.4
2017-09-03T05:18:18.556Z,18.4
2017-09-03T05:19:37.235Z,18.4
2017-09-03T05:20:55.897Z,18.4
2017-09-03T05:22:14.567Z,18.4
2017-09-03T05:23:33.240Z,18.4
2017-09-03T05:24:51.963Z,18.4
2017-09-03T05:26:10.634Z,18.4
2017-09-03T05:27:29.344Z,18.4
2017-09-03T05:28:48.061Z,18.5
2017-09-03T05:30:06.729Z,18.5
2017-09-03T05:31:25.394Z,18.5
2017-09-03T05:32:44.059Z,18.5
2017-09-03T05:34:02.778Z,18.5
2017-09-03T05:35:21.456Z,18.5
2017-09-03T05:36:40.139Z,18.5
2017-09-03T05:37:58.793Z,18.5
2017-09-03T05:39:17.457Z,18.5
2017-09-03T05:40:36.156Z,18.5
2017-09-03T05:41:54.842Z,18.5
2017-09-03T05:43:13.548Z,18.5
2017-09-03T05:44:32.222Z,18.5
2017-09-03T05:45:50.905Z,18.5
2017-09-03T05:47:09.567Z,18.5
2017-09-03T05:48:28.290Z,18.5
2017-09-03T05:49:46.955Z,18.5
2017-09-03T05:51:05.665Z,18.5
2017-09-03T05:52:24.338Z,18.6
2017-09-03T05:53:43.024Z,18.6
2017-09-03T05:55:01.689Z,18.6
2017-09-03T05:56:20.360Z,18.6
2017-09-03T05:57:39.047Z,18.6
2017-09-03T05:58:57.730Z,18.6
2017-09-03T06:00:16.395Z,18.6
2017-09-03T06:01:35.071Z,18.6
2017-09-03T06:02:53.730Z,18.6
2017-09-03T06:04:12.444Z,18.6
2017-09-03T06:05:31.125Z,18.6
2017-09-03T06:06:49.885Z,18.6
2017-09-03T06:08:08.569Z,18.6
2017-09-03T06:09:27.233Z,18.6
2017-09-03T06:10:45.900Z,18.6
2017-09-03T06:12:04.574Z,18.6
2017-09-03T06:13:23.264Z,18.6
2017-09-03T06:14:41.954Z,18.6
2017-09-03T06:16:00.628Z,18.6
2017-09-03T06:17:19.301Z,18.6
2017-09-03T06:18:37.969Z,18.6
2017-09-03T06:19:56.627Z,18.6
2017-09-03T06:21:15.328Z,18.6
2017-09-03T06:22:33.935Z,18.6
2017-09-03T06:23:52.621Z,18.6
2017-09-03T06:25:11.310Z,18.6
2017-09-03T06:26:29.983Z,18.6
2017-09-03T06:27:48.666Z,18.6
2017-09-03T06:29:07.337Z,18.6
2017-09-03T06:30:25.998Z,18.6
2017-09-03T06:31:44.717Z,18.6
2017-09-03T06:33:03.455Z,18.6
2017-09-03T06:34:22.121Z,18.6
2017-09-03T06:35:40.785Z,18.6
2017-09-03T06:36:59.458Z,18.7
2017-09-03T06:38:18.205Z,18.7
2017-09-03T06:39:36.865Z,18.7
2017-09-03T06:40:55.524Z,18.7
2017-09-03T06:42:14.186Z,18.7
2017-09-03T06:43:32.895Z,18.7
2017-09-03T06:44:51.566Z,18.7
2017-09-03T06:46:10.228Z,18.7
2017-09-03T06:47:28.888Z,18.7
2017-09-03T06:48:47.560Z,18.7
2017-09-03T06:50:06.226Z,18.7
2017-09-03T06:51:24.887Z,18.7
2017-09-03T06:52:43.592Z,18.7
2017-09-03T06:54:02.268Z,18.7
2017-09-03T06:55:20.989Z,18.7
2017-09-03T06:56:39.694Z,18.7
2017-09-03T06:57:58.365Z,18.7
2017-09-03T06:59:17.040Z,18.7
2017-09-03T07:00:35.701Z,18.7
2017-09-03T07:01:54.431Z,18.7
2017-09-03T07:03:13.093Z,18.7
2017-09-03T07:04:31.833Z,18.8
2017-09-03T07:05:50.526Z,18.8
2017-09-03T07:07:09.197Z,18.8
2017-09-03T07:08:27.863Z,18.8
2017-09-03T07:09:46.588Z,18.8
2017-09-03T07:11:05.256Z,18.8
2017-09-03T07:12:23.970Z,18.8
2017-09-03T07:13:42.694Z,18.8
2017-09-03T07:15:01.419Z,18.8
2017-09-03T07:16:20.100Z,18.8
2017-09-03T07:17:38.769Z,18.8
2017-09-03T07:18:57.437Z,18.8
2017-09-03T07:20:16.122Z,18.8
2017-09-03T07:21:34.796Z,18.8
2017-09-03T07:22:53.472Z,18.8
2017-09-03T07:24:12.136Z,18.8
2017-09-03T07:25:30.806Z,18.8
2017-09-03T07:26:49.524Z,18.8
2017-09-03T07:28:08.213Z,18.8
2017-09-03T07:29:26.869Z,18.8
2017-09-03T07:30:45.541Z,18.8
2017-09-03T07:32:04.202Z,18.8
2017-09-03T07:33:22.919Z,18.8
2017-09-03T07:34:41.583Z,18.8
2017-09-03T07:36:00.293Z,18.8
2017-09-03T07:37:18.961Z,18.8
2017-09-03T07:38:37.629Z,18.8
2017-09-03T07:39:56.291Z,18.9
2017-09-03T07:41:14.971Z,18.8
2017-09-03T07:42:33.647Z,18.9
2017-09-03T07:43:52.351Z,18.9
2017-09-03T07:45:11.055Z,18.9
2017-09-03T07:46:29.765Z,18.9
2017-09-03T07:47:48.472Z,18.9
2017-09-03T07:49:07.134Z,18.9
2017-09-03T07:50:25.797Z,18.9
2017-09-03T07:51:44.491Z,18.9
2017-09-03T07:53:03.161Z,18.9
2017-09-03T07:54:21.820Z,18.9
2017-09-03T07:55:40.497Z,18.9
2017-09-03T07:56:59.247Z,19
2017-09-03T07:58:17.967Z,19
2017-09-03T07:59:36.646Z,19
2017-09-03T08:00:55.322Z,19
2017-09-03T08:02:14.005Z,19
2017-09-03T08:03:32.732Z,19
2017-09-03T08:04:51.393Z,19
2017-09-03T08:06:10.064Z,19
2017-09-03T08:07:28.740Z,19
2017-09-03T08:08:47.453Z,19
2017-09-03T08:10:06.111Z,19
2017-09-03T08:11:24.782Z,19
2017-09-03T08:12:43.473Z,19
2017-09-03T08:14:02.162Z,19
2017-09-03T08:15:20.882Z,19
2017-09-03T08:16:39.555Z,19
2017-09-03T08:17:58.240Z,19.1
2017-09-03T08:19:16.904Z,19.1
2017-09-03T08:20:35.590Z,19.1
2017-09-03T08:21:54.278Z,19.1
2017-09-03T08:23:12.948Z,19.1
2017-09-03T08:24:31.666Z,19.1
2017-09-03T08:25:50.330Z,19.1
2017-09-03T08:27:08.998Z,19.1
2017-09-03T08:28:27.705Z,19.1
2017-09-03T08:29:46.423Z,19.1
2017-09-03T08:31:05.090Z,19.2
2017-09-03T08:32:23.754Z,19.2
2017-09-03T08:33:42.430Z,19.2
2017-09-03T08:35:01.133Z,19.2
2017-09-03T08:36:19.852Z,19.2
2017-09-03T08:37:38.527Z,19.2
2017-09-03T08:38:57.207Z,19.2
2017-09-03T08:40:15.916Z,19.2
2017-09-03T08:41:34.635Z,19.2
2017-09-03T08:42:53.304Z,19.2
2017-09-03T08:44:11.995Z,19.3
2017-09-03T08:45:30.665Z,19.3
2017-09-03T08:46:49.348Z,19.3
2017-09-03T08:48:08.019Z,19.3
2017-09-03T08:49:26.822Z,19.3
2017-09-03T08:50:45.544Z,19.3
2017-09-03T08:52:04.239Z,19.3
2017-09-03T08:53:22.951Z,19.3
2017-09-03T08:54:41.659Z,19.3
2017-09-03T08:56:00.328Z,19.3
2017-09-03T08:57:19.042Z,19.3
2017-09-03T08:58:37.712Z,19.3
2017-09-03T08:59:56.389Z,19.3
2017-09-03T09:01:15.053Z,19.3
2017-09-03T09:02:33.768Z,19.3
2017-09-03T09:03:52.490Z,19.3
2017-09-03T09:05:11.160Z,19.4
2017-09-03T09:06:29.873Z,19.4
2017-09-03T09:07:48.559Z,19.4
2017-09-03T09:09:07.230Z,19.4
2017-09-03T09:10:25.911Z,19.4
2017-09-03T09:11:44.578Z,19.4
2017-09-03T09:13:03.238Z,19.4
2017-09-03T09:14:21.944Z,19.4
2017-09-03T09:15:40.624Z,19.4
2017-09-03T09:16:59.296Z,19.4
2017-09-03T09:18:17.963Z,19.4
2017-09-03T09:19:36.622Z,19.4
2017-09-03T09:20:55.310Z,19.4
2017-09-03T09:22:14.004Z,19.4
2017-09-03T09:23:32.710Z,19.4
2017-09-03T09:24:51.396Z,19.4
2017-09-03T09:26:10.077Z,19.4
2017-09-03T09:27:28.744Z,19.4
2017-09-03T09:28:47.476Z,19.4
2017-09-03T09:30:06.165Z,19.4
2017-09-03T09:31:24.845Z,19.4
2017-09-03T09:32:43.538Z,19.4
2017-09-03T09:34:02.207Z,19.4
2017-09-03T09:35:20.871Z,19.4
2017-09-03T09:36:39.585Z,19.4
2017-09-03T09:37:58.257Z,19.4
2017-09-03T09:39:16.923Z,19.4
2017-09-03T09:40:35.610Z,19.4
2017-09-03T09:41:54.277Z,19.4
2017-09-03T09:43:12.940Z,19.4
2017-09-03T09:44:31.637Z,19.4
2017-09-03T09:45:50.306Z,19.4
2017-09-03T09:47:09.018Z,19.4
2017-09-03T09:48:27.675Z,19.4
2017-09-03T09:49:46.389Z,19.4
2017-09-03T09:51:05.051Z,19.4
2017-09-03T09:52:23.799Z,19.4
2017-09-03T09:53:42.512Z,19.4
2017-09-03T09:55:01.230Z,19.4
2017-09-03T09:56:19.896Z,19.4
2017-09-03T09:57:38.586Z,19.4
2017-09-03T09:58:57.322Z,19.4
2017-09-03T10:00:15.981Z,19.4
2017-09-03T10:01:34.695Z,19.4
2017-09-03T10:02:53.375Z,19.4
2017-09-03T10:04:12.046Z,19.4
2017-09-03T10:05:30.719Z,19.4
2017-09-03T10:06:49.431Z,19.4
2017-09-03T10:08:08.160Z,19.4
2017-09-03T10:09:26.821Z,19.4
2017-09-03T10:10:45.490Z,19.4
2017-09-03T10:12:04.172Z,19.4
2017-09-03T10:13:22.842Z,19.4
2017-09-03T10:14:41.505Z,19.4
2017-09-03T10:16:00.181Z,19.4
2017-09-03T10:17:18.914Z,19.4
2017-09-03T10:18:37.581Z,19.4
2017-09-03T10:19:56.241Z,19.4
2017-09-03T10:21:14.901Z,19.4
2017-09-03T10:22:33.568Z,19.4
2017-09-03T10:23:52.259Z,19.4
2017-09-03T10:25:10.926Z,19.4
2017-09-03T10:26:29.621Z,19.4
2017-09-03T10:27:48.293Z,19.4
2017-09-03T10:29:06.976Z,19.4
2017-09-03T10:30:25.637Z,19.4
2017-09-03T10:31:44.355Z,19.4
2017-09-03T10:33:03.030Z,19.4
2017-09-03T10:34:21.716Z,19.4
2017-09-03T10:35:40.375Z,19.4
2017-09-03T10:36:59.093Z,19.4
2017-09-03T10:38:17.745Z,19.3
2017-09-03T10:39:36.457Z,19.3
2017-09-03T10:40:55.126Z,19.3
2017-09-03T10:42:13.839Z,19.4
2017-09-03T10:43:32.512Z,19.3
2017-09-03T10:44:51.193Z,19.3
2017-09-03T10:46:09.860Z,19.3
2017-09-03T10:47:28.534Z,19.3
2017-09-03T10:48:47.198Z,19.3
2017-09-03T10:50:05.896Z,19.3
2017-09-03T10:51:24.611Z,19.3
2017-09-03T10:52:43.336Z,19.3
2017-09-03T10:54:02.069Z,19.3
2017-09-03T10:55:20.755Z,19.3
2017-09-03T10:56:39.421Z,19.3
2017-09-03T10:57:58.084Z,19.3
2017-09-03T10:59:16.747Z,19.3
2017-09-03T11:00:35.476Z,19.2
2017-09-03T11:01:54.143Z,19.3
2017-09-03T11:03:12.813Z,19.2
2017-09-03T11:04:31.474Z,19.2
2017-09-03T11:05:50.182Z,19.3
2017-09-03T11:07:08.853Z,19.3
2017-09-03T11:08:27.539Z,19.2
2017-09-03T11:09:46.230Z,19.2
2017-09-03T11:11:04.952Z,19.2
2017-09-03T11:12:23.642Z,19.2
2017-09-03T11:13:42.345Z,19.2
2017-09-03T11:15:01.045Z,19.2
2017-09-03T11:16:19.733Z,19.2
2017-09-03T11:17:38.452Z,19.2
2017-09-03T11:18:57.113Z,19.2
2017-09-03T11:20:15.800Z,19.2
2017-09-03T11:21:34.481Z,19.2
2017-09-03T11:22:53.141Z,19.2
2017-09-03T11:24:11.809Z,19.1
2017-09-03T11:25:30.472Z,19.1
2017-09-03T11:26:49.198Z,19.1
2017-09-03T11:28:07.918Z,19.1
2017-09-03T11:29:26.589Z,19.1
2017-09-03T11:30:45.256Z,19.1
2017-09-03T11:32:03.983Z,19.1
2017-09-03T11:33:22.643Z,19.1
2017-09-03T11:34:41.353Z,19.1
2017-09-03T11:36:00.072Z,19.1
2017-09-03T11:37:18.752Z,19.1
2017-09-03T11:38:37.417Z,19.1
2017-09-03T11:39:56.083Z,19.1
2017-09-03T11:41:14.752Z,19.1
2017-09-03T11:42:33.507Z,19.1
2017-09-03T11:43:52.169Z,19.1
2017-09-03T11:45:10.838Z,19.1
2017-09-03T11:46:29.497Z,19.1
2017-09-03T11:47:48.242Z,19.1
2017-09-03T11:49:06.930Z,19.2
2017-09-03T11:50:25.598Z,19.2
2017-09-03T11:51:44.266Z,19.2
2017-09-03T11:53:03.004Z,19.2
2017-09-03T11:54:21.668Z,19.2
2017-09-03T11:55:40.339Z,19.2
2017-09-03T11:56:59.005Z,19.2
2017-09-03T11:58:17.696Z,19.2
2017-09-03T11:59:36.369Z,19.2
2017-09-03T12:00:55.034Z,19.2
2017-09-03T12:02:13.749Z,19.2
2017-09-03T12:03:32.425Z,19.2
2017-09-03T12:04:51.104Z,19.2
2017-09-03T12:06:09.770Z,19.2
2017-09-03T12:07:28.459Z,19.2
2017-09-03T12:08:47.186Z,19.2
2017-09-03T12:10:05.899Z,19.2
2017-09-03T12:11:24.567Z,19.2
2017-09-03T12:12:43.265Z,19.2
2017-09-03T12:14:01.939Z,19.2
2017-09-03T12:15:20.641Z,19.2
2017-09-03T12:16:39.304Z,19.2
2017-09-03T12:17:57.967Z,19.2
2017-09-03T12:19:16.694Z,19.2
2017-09-03T12:20:35.356Z,19.2
2017-09-03T12:21:54.078Z,19.2
2017-09-03T12:23:12.742Z,19.2
2017-09-03T12:24:31.426Z,19.2
2017-09-03T12:25:50.091Z,19.2
2017-09-03T12:27:08.747Z,19.1
2017-09-03T12:28:27.444Z,19.1
2017-09-03T12:29:46.120Z,19.1
2017-09-03T12:31:04.835Z,19.1
2017-09-03T12:32:23.518Z,19.1
2017-09-03T12:33:42.181Z,19.1
2017-09-03T12:35:00.856Z,19.1
2017-09-03T12:36:19.572Z,19.1
2017-09-03T12:37:38.263Z,19.2
2017-09-03T12:38:56.925Z,19.2
2017-09-03T12:40:15.611Z,19.2
2017-09-03T12:41:34.282Z,19.2
2017-09-03T12:42:53.001Z,19.2
2017-09-03T12:44:11.690Z,19.3
2017-09-03T12:45:30.358Z,19.3
2017-09-03T12:46:49.031Z,19.2
2017-09-03T12:48:07.693Z,19.2
2017-09-03T12:49:26.417Z,19.2
2017-09-03T12:50:45.098Z,19.1
2017-09-03T12:52:03.825Z,19.1
2017-09-03T12:53:22.537Z,19.1
2017-09-03T12:54:41.196Z,19.1
2017-09-03T12:55:59.875Z,19.1
2017-09-03T12:57:18.548Z,19
2017-09-03T12:58:37.231Z,19
2017-09-03T12:59:55.898Z,19
2017-09-03T13:01:14.582Z,19
2017-09-03T13:02:33.266Z,19
2017-09-03T13:03:51.931Z,19.5
2017-09-03T13:05:10.598Z,19.6
2017-09-03T13:06:29.316Z,19.5
2017-09-03T13:07:48.067Z,19.4
2017-09-03T13:09:06.732Z,19.3
2017-09-03T13:10:25.450Z,19.3
2017-09-03T13:11:44.140Z,21.3
2017-09-03T13:13:02.818Z,21.3
2017-09-03T13:14:21.543Z,20.9
2017-09-03T13:15:40.231Z,21.1
2017-09-03T13:16:58.954Z,20.6
2017-09-03T13:18:17.631Z,20.2
2017-09-03T13:19:36.295Z,19.9
2017-09-03T13:20:54.994Z,19.6
2017-09-03T13:22:13.663Z,19.5
2017-09-03T13:23:32.326Z,19.6
2017-09-03T13:24:51.018Z,20.1
2017-09-03T13:26:09.694Z,22.3
2017-09-03T13:27:28.435Z,24.2
2017-09-03T13:28:47.119Z,25.1
2017-09-03T13:30:05.811Z,25.3
2017-09-03T13:31:24.471Z,26
2017-09-03T13:32:43.213Z,26.5
2017-09-03T13:34:01.888Z,26.7
2017-09-03T13:35:20.573Z,26.8
2017-09-03T13:36:39.247Z,26.8
2017-09-03T13:37:58.016Z,26.7
2017-09-03T13:39:16.676Z,26.4
2017-09-03T13:40:35.338Z,25.8
2017-09-03T13:41:54.003Z,25
2017-09-03T13:43:12.697Z,24.1
2017-09-03T13:44:31.446Z,23.4
2017-09-03T13:45:50.106Z,22.8
2017-09-03T13:47:08.772Z,22.3
2017-09-03T13:48:27.458Z,21.9
2017-09-03T13:49:46.124Z,21.7
2017-09-03T13:51:04.793Z,21.5
2017-09-03T13:52:23.453Z,21.3
2017-09-03T13:53:42.172Z,21.2
2017-09-03T13:55:00.857Z,21.1
2017-09-03T13:56:19.516Z,21
2017-09-03T13:57:38.183Z,21
2017-09-03T13:58:56.869Z,20.9
2017-09-03T14:00:15.554Z,20.9
2017-09-03T14:01:34.257Z,20.9
2017-09-03T14:02:52.959Z,20.8
2017-09-03T14:04:11.653Z,20.8
2017-09-03T14:05:30.370Z,20.7
2017-09-03T14:06:49.079Z,20.6
2017-09-03T14:08:07.794Z,20.6
2017-09-03T14:09:26.478Z,20.6
2017-09-03T14:10:45.193Z,20.5
2017-09-03T14:12:03.903Z,20.4
2017-09-03T14:13:22.568Z,20.3
2017-09-03T14:14:41.274Z,20.3
2017-09-03T14:15:59.951Z,20.3
2017-09-03T14:17:18.662Z,20.2
2017-09-03T14:18:37.331Z,20.2
2017-09-03T14:19:56.020Z,20.1
2017-09-03T14:21:14.700Z,20.1
2017-09-03T14:22:33.412Z,20.1
2017-09-03T14:23:52.076Z,20
2017-09-03T14:25:10.756Z,20.1
2017-09-03T14:26:29.417Z,20.1
2017-09-03T14:27:48.087Z,20.1
2017-09-03T14:29:06.766Z,20.2
2017-09-03T14:30:25.447Z,20.2
2017-09-03T14:31:44.120Z,20.1
2017-09-03T14:33:02.864Z,20.1
2017-09-03T14:34:21.562Z,20
2017-09-03T14:35:40.234Z,20
2017-09-03T14:36:58.916Z,19.9
2017-09-03T14:38:17.602Z,19.9
2017-09-03T14:39:36.294Z,19.9
2017-09-03T14:40:55.027Z,19.9
2017-09-03T14:42:13.691Z,19.9
2017-09-03T14:43:32.363Z,19.9
2017-09-03T14:44:51.046Z,19.9
2017-09-03T14:46:09.720Z,19.9
2017-09-03T14:47:28.393Z,19.9
2017-09-03T14:48:47.129Z,19.9
2017-09-03T14:50:05.800Z,19.9
2017-09-03T14:51:24.487Z,19.9
2017-09-03T14:52:43.146Z,19.9
2017-09-03T14:54:01.811Z,19.9
2017-09-03T14:55:20.473Z,19.9
2017-09-03T14:56:39.152Z,19.8
2017-09-03T14:57:57.844Z,19.8
2017-09-03T14:59:16.559Z,19.8
2017-09-03T15:00:35.247Z,19.8
2017-09-03T15:01:53.965Z,19.8
2017-09-03T15:03:12.661Z,19.7
2017-09-03T15:04:31.343Z,19.7
2017-09-03T15:05:50.011Z,19.7
2017-09-03T15:07:08.687Z,19.6
2017-09-03T15:08:27.392Z,19.6
2017-09-03T15:09:46.070Z,19.6
2017-09-03T15:11:04.737Z,19.6
2017-09-03T15:12:23.418Z,19.6
2017-09-03T15:13:42.138Z,19.6
2017-09-03T15:15:00.803Z,19.6
2017-09-03T15:16:19.466Z,19.6
2017-09-03T15:17:38.184Z,19.6
2017-09-03T15:18:56.847Z,19.6
2017-09-03T15:20:15.525Z,19.6
2017-09-03T15:21:34.190Z,19.6
2017-09-03T15:22:52.859Z,19.6
2017-09-03T15:24:11.534Z,19.6
2017-09-03T15:25:30.208Z,19.5
2017-09-03T15:26:48.925Z,19.5
2017-09-03T15:28:07.632Z,19.5
2017-09-03T15:29:26.295Z,19.5
2017-09-03T15:30:44.962Z,19.5
2017-09-03T15:32:03.658Z,19.5
2017-09-03T15:33:22.347Z,19.4
2017-09-03T15:34:41.014Z,19.4
2017-09-03T15:35:59.708Z,19.4
2017-09-03T15:37:18.375Z,19.4
2017-09-03T15:38:37.046Z,19.4
2017-09-03T15:39:55.719Z,19.4
2017-09-03T15:41:14.394Z,19.4
2017-09-03T15:42:33.066Z,19.4
2017-09-03T15:43:51.745Z,19.4
2017-09-03T15:45:10.426Z,19.4
2017-09-03T15:46:29.103Z,19.3
2017-09-03T15:47:47.821Z,19.4
2017-09-03T15:49:06.551Z,19.4
2017-09-03T15:50:25.218Z,19.4
2017-09-03T15:51:43.945Z,19.4
2017-09-03T15:53:02.625Z,19.3
2017-09-03T15:54:21.317Z,19.3
2017-09-03T15:55:39.981Z,19.3
2017-09-03T15:56:58.646Z,19.3
2017-09-03T15:58:17.390Z,19.2
2017-09-03T15:59:36.126Z,19.2
2017-09-03T16:00:54.792Z,19.2
2017-09-03T16:02:13.502Z,19.2
2017-09-03T16:03:32.184Z,19.1
2017-09-03T16:04:50.932Z,19.1
2017-09-03T16:06:09.609Z,19.1
2017-09-03T16:07:28.283Z,19.1
2017-09-03T16:08:46.946Z,19
2017-09-03T16:10:05.676Z,19
2017-09-03T16:11:24.332Z,19
2017-09-03T16:12:43.049Z,19
2017-09-03T16:14:01.725Z,19
2017-09-03T16:15:20.394Z,18.9
2017-09-03T16:16:39.099Z,18.9
2017-09-03T16:17:57.795Z,18.9
2017-09-03T16:19:16.457Z,18.9
2017-09-03T16:20:35.137Z,18.9
2017-09-03T16:21:53.815Z,18.9
2017-09-03T16:23:12.526Z,18.9
2017-09-03T16:24:31.227Z,18.9
2017-09-03T16:25:49.916Z,18.9
2017-09-03T16:27:08.585Z,18.9
2017-09-03T16:28:27.291Z,18.8
2017-09-03T16:29:45.998Z,18.9
2017-09-03T16:31:04.670Z,18.8
2017-09-03T16:32:23.332Z,18.8
2017-09-03T16:33:41.998Z,18.8
2017-09-03T16:35:00.689Z,18.8
2017-09-03T16:36:19.392Z,18.8
2017-09-03T16:37:38.061Z,18.8
2017-09-03T16:38:56.776Z,18.8
2017-09-03T16:40:15.496Z,18.8
2017-09-03T16:41:34.171Z,18.8
2017-09-03T16:42:52.883Z,18.8
2017-09-03T16:44:11.549Z,18.8
2017-09-03T16:45:30.212Z,18.8
2017-09-03T16:46:48.940Z,18.8
2017-09-03T16:48:07.606Z,18.8
2017-09-03T16:49:26.264Z,18.8
2017-09-03T16:50:44.970Z,18.7
2017-09-03T16:52:03.718Z,18.7
2017-09-03T16:53:22.434Z,18.7
2017-09-03T16:54:41.111Z,18.7
2017-09-03T16:55:59.767Z,18.7
2017-09-03T16:57:18.452Z,18.7
2017-09-03T16:58:37.145Z,18.7
2017-09-03T16:59:55.804Z,18.7
2017-09-03T17:01:14.496Z,18.7
2017-09-03T17:02:33.217Z,18.7
2017-09-03T17:03:51.886Z,18.7
2017-09-03T17:05:10.588Z,18.6
2017-09-03T17:06:29.267Z,18.6
2017-09-03T17:07:47.992Z,18.6
2017-09-03T17:09:06.669Z,18.6
2017-09-03T17:10:25.359Z,18.6
2017-09-03T17:11:44.076Z,18.6
2017-09-03T17:13:02.757Z,18.6
2017-09-03T17:14:21.464Z,18.6
2017-09-03T17:15:40.128Z,18.6
2017-09-03T17:16:58.847Z,18.5
2017-09-03T17:18:17.553Z,18.5
2017-09-03T17:19:36.219Z,18.5
2017-09-03T17:20:54.889Z,18.5
2017-09-03T17:22:13.552Z,18.5
2017-09-03T17:23:32.277Z,18.5
2017-09-03T17:24:50.940Z,18.5
2017-09-03T17:26:09.618Z,18.5
2017-09-03T17:27:28.301Z,18.5
2017-09-03T17:28:47.013Z,18.5
2017-09-03T17:30:05.676Z,18.5